Time;durP1;ratioP1;P1;durP2;ratioP2;P2;SDS_P1;SDS_P2;PMS_P1;PMS_P2;Temp;Humidity;BMP_temperature;BMP_pressure;BME280_temperature;BME280_humidity;BME280_pressure;Samples;Min_cycle;Max_cycle;Signal;HPM_P1;HPM_P2
2022/01/14 00:00:59;;;;;;;69.30;27.52;;;;;;;0.49;100.00;102549.72;4889301;29;20156;-96
2022/01/14 00:03:40;;;;;;;77.28;28.50;;;;;;;0.71;100.00;102572.06;4907385;29;20056;-95
2022/01/14 00:06:12;;;;;;;77.43;28.52;;;;;;;0.60;100.00;102558.75;4904978;29;20062;-95
2022/01/14 00:08:53;;;;;;;;;;;;;;;;;;;;;
2022/01/14 00:11:23;;;;;;;79.28;28.05;;;;;;;0.49;100.00;102538.41;4912608;29;20075;-96
2022/01/14 00:14:07;;;;;;;77.88;28.25;;;;;;;0.45;100.00;102520.94;4914596;29;20040;-96
2022/01/14 00:16:42;;;;;;;73.38;27.10;;;;;;;0.48;100.00;102532.31;4918080;29;20041;-96
2022/01/14 00:19:27;;;;;;;;;;;;;;;;;;;;;
2022/01/14 00:22:03;;;;;;;79.93;29.20;;;;;;;0.68;100.00;102545.91;4919270;29;20129;-96
2022/01/14 00:33:38;;;;;;;81.25;28.40;;;;;;;0.62;100.00;102504.06;4900445;29;20052;-95
2022/01/14 00:36:11;;;;;;;75.75;28.75;;;;;;;0.75;100.00;102532.22;4894170;29;20053;-95
2022/01/14 00:38:47;;;;;;;82.68;28.98;;;;;;;0.94;100.00;102549.25;4894793;29;20057;-95
2022/01/14 00:41:21;;;;;;;81.35;29.10;;;;;;;0.62;100.00;102504.94;4901515;29;20053;-96
2022/01/14 00:44:01;;;;;;;80.68;28.08;;;;;;;0.68;100.00;102519.84;4906392;29;20073;-96
2022/01/14 00:46:29;;;;;;;77.72;27.30;;;;;;;0.75;100.00;102531.34;4899886;29;20048;-96
2022/01/14 00:49:00;;;;;;;76.47;28.40;;;;;;;0.94;100.00;102552.75;4896889;29;20059;-96
2022/01/14 00:51:29;;;;;;;83.35;28.83;;;;;;;0.58;100.00;102487.44;4901479;29;20135;-96
2022/01/14 00:53:59;;;;;;;77.60;30.15;;;;;;;0.94;100.00;102547.53;4899617;29;20045;-95
2022/01/14 00:57:03;;;;;;;80.23;29.67;;;;;;;0.94;100.00;102544.91;4902702;29;20083;-96
2022/01/14 00:59:35;;;;;;;75.60;26.77;;;;;;;0.62;100.00;102480.59;4898514;29;20061;-95
2022/01/14 01:02:03;;;;;;;78.03;28.02;;;;;;;0.61;100.00;102487.53;4900023;29;20052;-95
2022/01/14 01:04:38;;;;;;;78.43;28.90;;;;;;;0.77;100.00;102517.50;4896905;29;20056;-95
2022/01/14 01:07:10;;;;;;;86.95;28.55;;;;;;;0.49;100.00;102478.47;4894633;29;20063;-95
2022/01/14 01:09:40;;;;;;;77.00;28.43;;;;;;;0.50;100.00;102485.44;4897382;29;20128;-95
2022/01/14 01:12:26;;;;;;;;;;;;;;;;;;;;;
2022/01/14 01:15:08;;;;;;;71.82;26.65;;;;;;;0.54;100.00;102484.69;4906568;29;20048;-96
2022/01/14 01:17:41;;;;;;;76.32;27.77;;;;;;;0.58;100.00;102482.22;4909715;29;20135;-95
2022/01/14 01:20:17;;;;;;;81.65;28.77;;;;;;;0.61;100.00;102490.13;4906164;29;20056;-95
2022/01/14 01:22:48;;;;;;;84.68;29.73;;;;;;;0.61;100.00;102486.63;4894761;29;20057;-96
2022/01/14 01:25:20;;;;;;;82.18;28.90;;;;;;;0.61;100.00;102486.63;4903723;29;20083;-94
2022/01/14 01:27:55;;;;;;;87.68;29.70;;;;;;;0.65;100.00;102486.75;4910837;29;20072;-95
2022/01/14 01:33:00;;;;;;;81.13;28.33;;;;;;;0.90;100.00;102518.69;4900380;29;20488;-96
2022/01/14 03:37:37;;;;;;;68.85;22.58;;;;;;;0.40;100.00;102465.19;6200714;22;2340712;-95
2022/01/14 03:40:18;;;;;;;62.75;20.55;;;;;;;0.17;100.00;102428.94;6278669;22;20016;-95
2022/01/14 03:42:46;;;;;;;60.63;20.50;;;;;;;0.13;100.00;102402.78;6252732;22;20016;-93
2022/01/14 03:45:22;;;;;;;57.47;19.75;;;;;;;0.25;100.00;102431.78;6278709;22;20032;-94
2022/01/14 03:47:54;;;;;;;51.60;19.65;;;;;;;0.13;100.00;102408.00;6277572;22;20439;-95
2022/01/14 03:50:44;;;;;;;51.65;19.58;;;;;;;0.13;100.00;102402.78;6279411;22;20075;-94
2022/01/14 03:53:12;;;;;;;52.15;20.48;;;;;;;0.12;100.00;102399.31;6229365;22;20107;-93
2022/01/14 03:55:47;;;;;;;53.15;20.05;;;;;;;0.30;100.00;102425.88;6281063;22;20191;-94
2022/01/14 03:58:37;;;;;;;47.72;19.75;;;;;;;0.22;100.00;102403.03;6279880;22;20089;-94
2022/01/14 04:01:13;;;;;;;50.92;19.00;;;;;;;0.41;100.00;102433.97;6281430;22;20019;-94
2022/01/14 04:03:41;;;;;;;52.40;19.33;;;;;;;0.45;100.00;102440.16;6281611;22;20077;-95
2022/01/14 04:06:10;;;;;;;52.50;18.58;;;;;;;0.17;100.00;102399.41;6288010;22;20019;-95
2022/01/14 04:08:42;;;;;;;48.33;18.67;;;;;;;0.14;100.00;102394.13;6294521;22;20023;-93
2022/01/14 04:11:13;;;;;;;51.28;18.83;;;;;;;0.29;100.00;102416.28;6293457;22;20067;-94
2022/01/14 04:13:52;;;;;;;53.10;18.27;;;;;;;0.11;100.00;102389.72;6260039;22;20042;-94
2022/01/14 04:16:27;;;;;;;92.50;18.15;;;;;;;0.05;100.00;102389.53;6285187;22;20075;-94
2022/01/14 04:18:55;;;;;;;48.10;18.33;;;;;;;0.15;100.00;102412.41;6287176;22;20029;-94
2022/01/14 04:21:22;;;;;;;41.53;17.75;;;;;;;0.31;100.00;102440.66;6286722;22;20020;-95
2022/01/14 04:23:50;;;;;;;43.03;17.70;;;;;;;0.03;100.00;102391.22;6288453;22;20073;-96
2022/01/14 04:26:21;;;;;;;44.00;18.05;;;;;;;0.34;100.00;102451.13;6276545;22;20003;-94
2022/01/14 04:28:56;;;;;;;46.88;19.05;;;;;;;0.13;100.00;102406.28;6300875;22;20029;-95
2022/01/14 04:31:27;;;;;;;48.67;18.90;;;;;;;0.17;100.00;102405.50;6299445;22;20004;-94
2022/01/14 04:33:56;;;;;;;56.63;19.42;;;;;;;0.19;100.00;102403.81;6250338;22;20039;-96
2022/01/14 04:36:24;;;;;;;46.83;17.58;;;;;;;0.13;100.00;102384.56;6300119;22;20025;-95
2022/01/14 04:38:56;;;;;;;55.15;17.83;;;;;;;0.21;100.00;102407.34;6255551;22;20732;-93
2022/01/14 04:41:27;;;;;;;46.78;18.15;;;;;;;-0.01;100.00;102385.06;6249358;22;20023;-93
2022/01/14 04:43:55;;;;;;;49.13;18.10;;;;;;;0.04;100.00;102382.56;6249301;22;20023;-93
2022/01/14 04:49:41;;;;;;;57.30;17.10;;;;;;;-0.30;100.00;102356.41;6248169;22;20020;-93
2022/01/14 04:52:20;;;;;;;51.53;16.77;;;;;;;0.00;100.00;102406.78;6249042;22;20020;-93
2022/01/14 04:54:53;;;;;;;69.28;17.90;;;;;;;-0.33;100.00;102343.31;6249523;22;20020;-94
2022/01/14 04:57:21;;;;;;;68.13;16.52;;;;;;;-0.19;100.00;102368.91;6248741;22;20019;-94
2022/01/14 04:59:51;;;;;;;39.88;14.77;;;;;;;-0.27;100.00;102366.91;6249976;22;20218;-94
2022/01/14 05:02:40;;;;;;;68.35;17.30;;;;;;;-0.34;100.00;102365.88;6251267;22;20042;-94
2022/01/14 05:05:20;;;;;;;77.60;16.90;;;;;;;-0.16;100.00;102401.97;6256650;22;20018;-94
2022/01/14 05:07:52;;;;;;;43.83;15.75;;;;;;;-0.44;100.00;102364.69;6258853;22;20039;-94
2022/01/14 05:13:01;;;;;;;112.43;15.50;;;;;;;-0.68;100.00;102335.38;6260056;22;20027;-96
2022/01/14 05:15:31;;;;;;;24.55;10.77;;;;;;;-0.72;100.00;102328.31;6268066;23;20008;-95
2022/01/14 05:21:12;;;;;;;34.05;13.27;;;;;;;-0.34;100.00;102402.31;6251498;23;20023;-93
2022/01/14 05:23:51;;;;;;;49.60;14.70;;;;;;;-0.73;100.00;102345.63;6256594;23;20474;-93
2022/01/14 05:26:26;;;;;;;35.92;14.80;;;;;;;-0.41;100.00;102419.47;6250284;22;20031;-93
2022/01/14 05:29:13;;;;;;;36.70;14.35;;;;;;;-0.66;100.00;102349.31;6251117;22;20078;-94
2022/01/14 05:32:00;;;;;;;41.35;15.45;;;;;;;-0.53;100.00;102371.38;6247454;22;20016;-93
2022/01/14 05:34:36;;;;;;;39.90;15.05;;;;;;;-0.67;100.00;102354.47;6251632;22;20024;-93
2022/01/14 05:37:11;;;;;;;36.33;14.60;;;;;;;-0.55;100.00;102366.13;6252499;22;20016;-95
2022/01/14 05:39:47;;;;;;;41.25;15.05;;;;;;;-0.63;100.00;102338.97;6293140;22;20107;-96
2022/01/14 05:42:22;;;;;;;46.75;15.07;;;;;;;-0.62;100.00;102329.44;6292906;22;20018;-93
2022/01/14 05:45:01;;;;;;;47.47;15.50;;;;;;;-0.40;100.00;102374.38;6290791;22;20434;-94
2022/01/14 05:47:30;;;;;;;37.38;14.70;;;;;;;-0.64;100.00;102326.84;6290993;22;20035;-95
2022/01/14 05:50:36;;;;;;;;;;;;;;;;;;;;;
2022/01/14 05:53:10;;;;;;;63.50;16.55;;;;;;;-0.36;100.00;102378.84;6277891;22;20023;-93
2022/01/14 05:59:13;;;;;;;33.28;14.20;;;;;;;-0.52;100.00;102347.13;6254401;23;20035;-94
2022/01/14 06:01:50;;;;;;;58.38;14.88;;;;;;;-0.38;100.00;102377.91;6287003;22;20037;-94
2022/01/14 06:04:38;;;;;;;36.25;13.77;;;;;;;-0.48;100.00;102364.59;6284118;22;20020;-95
2022/01/14 06:07:06;;;;;;;42.60;14.93;;;;;;;-0.64;100.00;102352.84;6238602;22;20026;-94
2022/01/14 06:09:49;;;;;;;39.55;14.07;;;;;;;-0.45;100.00;102388.97;6288394;22;20020;-94
2022/01/14 06:12:24;;;;;;;32.60;14.13;;;;;;;-0.40;100.00;102397.81;6274494;22;20047;-95
2022/01/14 06:15:00;;;;;;;45.95;14.10;;;;;;;-0.54;100.00;102387.81;6301608;22;20047;-94
2022/01/14 06:17:30;;;;;;;33.85;14.27;;;;;;;-0.63;100.00;102380.59;6303378;22;20016;-96
2022/01/14 06:19:58;;;;;;;49.75;15.80;;;;;;;-0.82;100.00;102347.09;6301300;22;20026;-95
2022/01/14 06:26:34;;;;;;;34.55;14.10;;;;;;;-0.42;100.00;102402.06;6220817;23;20074;-94
2022/01/14 06:32:27;;;;;;;69.95;15.60;;;;;;;-0.72;100.00;102338.72;6220826;23;20088;-95
2022/01/14 06:35:10;;;;;;;45.13;15.45;;;;;;;-0.38;100.00;102400.44;6221177;23;20068;-95
2022/01/14 06:40:46;;;;;;;45.47;15.75;;;;;;;-0.65;100.00;102351.09;6160759;23;20016;-95
2022/01/14 06:43:21;;;;;;;34.90;15.03;;;;;;;-0.45;100.00;102388.97;6137070;23;20461;-94
2022/01/14 06:46:07;;;;;;;66.70;12.27;;;;;;;-0.30;100.00;102411.06;6134547;23;20024;-95
2022/01/14 06:48:48;;;;;;;41.05;15.10;;;;;;;-0.44;100.00;102392.44;6163867;23;20017;-94
2022/01/14 06:54:23;;;;;;;39.03;14.40;;;;;;;-0.66;100.00;102356.25;6162696;23;20694;-95
2022/01/14 06:57:09;;;;;;;37.58;14.35;;;;;;;-0.52;100.00;102380.94;6190681;23;20025;-93
2022/01/14 06:59:39;;;;;;;56.40;15.50;;;;;;;-0.51;100.00;102361.91;6202286;23;20016;-94
2022/01/14 07:02:26;;;;;;;43.45;15.52;;;;;;;-0.43;100.00;102379.47;6227340;23;20023;-94
2022/01/14 07:05:01;;;;;;;42.90;15.75;;;;;;;-0.24;100.00;102408.66;6219552;23;20021;-94
2022/01/14 07:07:30;;;;;;;;;;;;;;;-0.15;100.00;102411.53;6194158;23;20036;-95
2022/01/14 07:10:34;;;;;;;38.65;13.98;;;;;;;-0.17;100.00;102411.50;6220769;23;19916;-95
2022/01/14 07:16:20;;;;;;;29.13;12.80;;;;;;;-0.40;100.00;102374.38;6220770;23;20117;-94
2022/01/14 07:18:57;;;;;;;49.55;14.32;;;;;;;-0.48;100.00;102375.00;6233165;23;20068;-95
2022/01/14 07:21:52;;;;;;;43.05;13.35;;;;;;;-0.45;100.00;102383.75;6232470;23;20076;-94
2022/01/14 07:24:26;;;;;;;35.53;14.30;;;;;;;-0.50;100.00;102381.88;6230984;23;20072;-94
2022/01/14 07:27:27;;;;;;;28.40;12.18;;;;;;;-0.38;100.00;102393.53;6213861;23;20027;-93
2022/01/14 07:30:02;;;;;;;45.03;13.63;;;;;;;-0.27;100.00;102416.38;6226557;23;20099;-95
2022/01/14 07:32:53;;;;;;;52.45;13.45;;;;;;;-0.46;100.00;102382.00;6202348;23;20016;-94
2022/01/14 07:35:25;;;;;;;41.40;13.98;;;;;;;-0.60;100.00;102359.88;6224079;23;20021;-94
2022/01/14 07:38:19;;;;;;;;;;;;;;;;;;;;;
2022/01/14 07:40:55;;;;;;;39.78;15.02;;;;;;;-0.64;100.00;102352.84;6252024;23;20136;-95
2022/01/14 07:43:24;;;;;;;45.15;15.77;;;;;;;-0.63;100.00;102346.78;6198011;23;20024;-93
2022/01/14 07:45:53;;;;;;;64.93;15.88;;;;;;;-0.45;100.00;102386.38;6252199;23;20329;-93
2022/01/14 07:48:47;;;;;;;47.97;14.65;;;;;;;-0.45;100.00;102385.47;6251283;23;20493;-93
2022/01/14 07:51:38;;;;;;;42.40;15.02;;;;;;;-0.72;100.00;102380.34;6249928;23;20085;-93
2022/01/14 07:57:54;;;;;;;41.78;15.60;;;;;;;-0.48;100.00;102421.84;6249591;23;20016;-94
2022/01/14 08:00:53;;;;;;;68.22;16.70;;;;;;;-0.39;100.00;102435.13;6249596;23;20382;-93
2022/01/14 08:03:23;;;;;;;40.80;16.45;;;;;;;-0.62;100.00;102386.69;6250754;23;20020;-94
2022/01/14 08:05:58;;;;;;;43.50;16.27;;;;;;;-0.67;100.00;102375.28;6252081;23;20316;-94
2022/01/14 08:08:33;;;;;;;47.05;17.67;;;;;;;-0.33;100.00;102405.81;6252821;23;20016;-94
2022/01/14 08:11:34;;;;;;;52.83;16.52;;;;;;;-0.48;100.00;102357.66;6260354;23;20016;-93
2022/01/14 08:14:09;;;;;;;50.90;16.05;;;;;;;-0.62;100.00;102348.53;6249699;23;20099;-93
2022/01/14 08:16:50;;;;;;;72.72;17.30;;;;;;;-0.61;100.00;102371.13;6246912;23;20027;-92
2022/01/14 08:19:19;;;;;;;72.53;18.08;;;;;;;-0.58;100.00;102370.34;6245478;22;20020;-94
2022/01/14 08:21:50;;;;;;;49.70;16.65;;;;;;;-0.48;100.00;102381.09;6251553;22;20020;-94
2022/01/14 08:24:26;;;;;;;43.65;16.20;;;;;;;-0.42;100.00;102377.75;6250722;22;20047;-92
2022/01/14 08:26:53;;;;;;;45.70;17.42;;;;;;;-0.39;100.00;102365.72;6247294;23;20389;-94
2022/01/14 08:29:22;;;;;;;44.88;15.82;;;;;;;-0.17;100.00;102397.59;6239885;23;20017;-92
2022/01/14 08:31:49;;;;;;;38.88;15.85;;;;;;;-0.19;100.00;102400.16;6244321;23;20047;-91
2022/01/14 08:34:19;;;;;;;41.10;15.82;;;;;;;-0.33;100.00;102400.59;6245976;23;20105;-92
2022/01/14 08:36:52;;;;;;;49.63;17.40;;;;;;;-0.42;100.00;102375.16;6258582;23;20297;-96
2022/01/14 08:39:20;;;;;;;41.95;16.80;;;;;;;-0.33;100.00;102400.59;6252677;23;20024;-93
2022/01/14 08:41:55;;;;;;;46.17;16.67;;;;;;;-0.45;100.00;102373.34;6261140;23;20016;-95
2022/01/14 08:44:23;;;;;;;47.08;17.25;;;;;;;-0.38;100.00;102382.22;6257994;23;20027;-93
2022/01/14 08:46:55;;;;;;;36.13;15.57;;;;;;;-0.12;100.00;102412.50;6260946;23;20016;-92
2022/01/14 08:49:23;;;;;;;52.42;16.23;;;;;;;-0.23;100.00;102406.09;6256685;23;20035;-92
2022/01/14 08:51:49;;;;;;;36.72;16.65;;;;;;;-0.29;100.00;102399.81;6250310;23;20083;-92
2022/01/14 08:54:18;;;;;;;36.47;16.15;;;;;;;-0.55;100.00;102362.63;6251945;23;20366;-92
2022/01/14 08:56:46;;;;;;;35.05;16.65;;;;;;;-0.18;100.00;102424.47;6242376;23;20016;-92
2022/01/14 08:59:15;;;;;;;38.25;17.13;;;;;;;-0.21;100.00;102409.66;6244974;23;20046;-92
2022/01/14 09:01:42;;;;;;;32.95;16.77;;;;;;;-0.15;100.00;102395.91;6242505;23;20383;-92
2022/01/14 09:04:23;;;;;;;;;;;;;;;-0.04;100.00;102407.53;6248184;23;20017;-92
2022/01/14 09:06:52;;;;;;;41.22;17.33;;;;;;;-0.45;100.00;102334.31;6246457;23;19915;-92
2022/01/14 09:09:25;;;;;;;52.55;20.27;;;;;;;-0.07;100.00;102405.72;6244366;23;20459;-91
2022/01/14 09:11:55;;;;;;;44.70;18.55;;;;;;;-0.20;100.00;102384.50;6247084;23;20752;-93
2022/01/14 09:14:22;;;;;;;41.33;18.65;;;;;;;-0.46;100.00;102347.28;6258721;23;20026;-91
2022/01/14 09:16:49;;;;;;;41.72;18.17;;;;;;;-0.22;100.00;102388.75;6252301;22;20095;-92
2022/01/14 09:19:20;;;;;;;50.63;20.70;;;;;;;-0.04;100.00;102403.19;6246863;22;20016;-95
2022/01/14 09:21:48;;;;;;;48.45;21.05;;;;;;;-0.32;100.00;102348.59;6249294;22;20028;-93
2022/01/14 09:24:38;;;;;;;49.05;20.83;;;;;;;-0.12;100.00;102369.94;6245270;23;20024;-94
2022/01/14 09:27:06;;;;;;;40.58;19.85;;;;;;;0.15;100.00;102399.38;6240152;23;20039;-93
2022/01/14 09:29:48;;;;;;;45.42;20.65;;;;;;;0.21;100.00;102403.88;6235843;23;20092;-93
2022/01/14 09:32:14;;;;;;;48.35;19.77;;;;;;;0.08;100.00;102386.13;6245854;23;20027;-93
2022/01/14 09:34:42;;;;;;;42.50;19.60;;;;;;;0.02;100.00;102384.22;6243493;23;20066;-95
2022/01/14 09:37:10;;;;;;;40.45;19.15;;;;;;;0.11;100.00;102374.09;6241767;22;20019;-93
2022/01/14 09:39:50;;;;;;;40.58;18.77;;;;;;;0.11;100.00;102368.00;6238687;22;20379;-94
2022/01/14 09:42:19;;;;;;;38.03;18.63;;;;;;;0.34;100.00;102409.44;6243954;23;20035;-93
2022/01/14 09:44:48;;;;;;;37.95;19.15;;;;;;;0.18;99.86;102385.53;6243259;23;20035;-93
2022/01/14 09:47:33;;;;;;;39.55;18.92;;;;;;;0.31;99.66;102424.13;6245306;23;20024;-93
2022/01/14 09:50:04;;;;;;;40.20;18.98;;;;;;;0.00;99.73;102371.16;6241737;22;20035;-93
2022/01/14 09:52:32;;;;;;;39.65;19.45;;;;;;;0.38;100.00;102427.78;6244274;23;20028;-94
2022/01/14 09:55:00;;;;;;;42.97;18.63;;;;;;;0.25;99.71;102401.38;6242738;23;20020;-93
2022/01/14 09:57:47;;;;;;;36.47;18.90;;;;;;;0.11;99.92;102387.13;6244827;23;20024;-92
2022/01/14 10:00:38;;;;;;;38.53;19.88;;;;;;;0.25;99.87;102404.00;6229851;23;20024;-93
2022/01/14 10:03:20;;;;;;;38.90;20.02;;;;;;;0.53;100.00;102422.97;6250478;23;20027;-94
2022/01/14 10:05:51;;;;;;;37.20;18.48;;;;;;;0.58;99.54;102429.19;6244721;23;20016;-93
2022/01/14 10:08:23;;;;;;;38.35;18.88;;;;;;;0.51;99.47;102403.78;6248175;23;20091;-93
2022/01/14 10:10:58;;;;;;;40.88;17.60;;;;;;;0.42;97.95;102403.56;6241310;22;20016;-93
2022/01/14 10:13:34;;;;;;;35.97;17.77;;;;;;;0.20;97.48;102361.28;6248482;23;20026;-93
2022/01/14 10:16:27;;;;;;;36.95;19.02;;;;;;;0.22;97.28;102367.44;6253386;23;20023;-93
2022/01/14 10:18:54;;;;;;;33.45;18.90;;;;;;;0.27;97.21;102362.34;6238959;23;20027;-93
2022/01/14 10:21:30;;;;;;;35.05;18.73;;;;;;;0.38;96.55;102379.13;6244013;23;20023;-92
2022/01/14 10:23:59;;;;;;;35.08;19.15;;;;;;;0.20;96.03;102365.63;6243943;22;20483;-93
2022/01/14 10:26:49;;;;;;;39.20;20.35;;;;;;;0.12;97.22;102401.91;6245469;23;20039;-93
2022/01/14 10:29:38;;;;;;;40.15;20.92;;;;;;;0.05;98.44;102406.88;6243572;23;20047;-93
2022/01/14 10:32:38;;;;;;;40.35;20.58;;;;;;;-0.08;98.44;102395.25;6243407;22;20034;-93
2022/01/14 10:35:10;;;;;;;40.45;20.92;;;;;;;0.23;98.25;102417.81;6217694;23;20419;-93
2022/01/14 10:37:45;;;;;;;37.95;19.98;;;;;;;0.17;98.50;102388.97;6245598;22;20505;-94
2022/01/14 10:40:24;;;;;;;40.45;21.25;;;;;;;0.39;97.74;102400.88;6246097;22;20024;-96
2022/01/14 10:43:00;;;;;;;42.97;20.92;;;;;;;0.63;96.22;102423.25;6249494;22;20497;-94
2022/01/14 10:45:48;;;;;;;41.28;20.05;;;;;;;0.56;95.41;102397.88;6243052;23;20331;-93
2022/01/14 10:48:43;;;;;;;39.58;20.40;;;;;;;0.59;95.63;102402.28;6244648;23;20036;-94
2022/01/14 10:51:34;;;;;;;33.90;18.10;;;;;;;0.48;96.18;102370.72;6241755;23;20387;-94
2022/01/14 10:54:42;;;;;;;39.90;20.35;;;;;;;0.41;94.96;102331.44;6244940;23;20046;-93
2022/01/14 10:57:39;;;;;;;36.33;18.85;;;;;;;0.88;93.61;102390.84;6251016;23;20024;-93
2022/01/14 11:00:16;;;;;;;37.15;20.10;;;;;;;0.49;93.27;102324.66;6243847;23;20498;-93
2022/01/14 11:02:48;;;;;;;37.42;20.45;;;;;;;0.71;93.41;102379.13;6240815;23;20020;-90
2022/01/14 11:05:23;;;;;;;39.72;21.42;;;;;;;0.81;94.33;102386.31;6246958;23;20016;-95
2022/01/14 11:07:51;;;;;;;39.80;21.17;;;;;;;0.83;94.33;102374.19;6249352;22;20043;-92
2022/01/14 11:10:29;;;;;;;39.22;21.85;;;;;;;0.93;93.50;102376.22;6247132;23;20024;-91
2022/01/14 11:12:58;;;;;;;43.25;22.73;;;;;;;0.96;93.54;102371.03;6251160;23;20341;-92
2022/01/14 11:15:39;;;;;;;45.97;23.40;;;;;;;0.98;93.31;102351.09;6248650;22;20118;-93
2022/01/14 11:18:07;;;;;;;39.30;20.80;;;;;;;1.09;93.79;102368.75;6241365;22;20099;-91
2022/01/14 11:23:34;;;;;;;36.35;19.63;;;;;;;0.94;92.95;102354.50;6244526;23;20027;-90
2022/01/14 11:26:05;;;;;;;35.88;19.33;;;;;;;0.68;93.45;102313.84;6243221;22;20028;-93
2022/01/14 11:28:35;;;;;;;37.58;20.45;;;;;;;0.70;93.27;102304.34;6244283;23;20028;-93
2022/01/14 11:31:36;;;;;;;37.55;20.75;;;;;;;0.94;92.57;102332.75;6245031;22;20016;-94
2022/01/14 11:34:27;;;;;;;38.95;21.30;;;;;;;0.92;93.12;102324.88;6246669;23;20023;-95
2022/01/14 11:37:11;;;;;;;;;;;;;;;1.02;93.13;102319.00;6243866;23;20020;-94
2022/01/14 11:40:07;;;;;;;45.88;22.27;;;;;;;1.02;93.50;102316.41;6241516;22;19935;-91
2022/01/14 11:42:48;;;;;;;43.25;23.48;;;;;;;0.99;92.98;102294.59;6243861;23;20098;-94
2022/01/14 11:45:42;;;;;;;40.05;20.92;;;;;;;1.19;92.70;102316.78;6245225;23;20083;-91
2022/01/14 11:48:58;;;;;;;38.15;21.10;;;;;;;1.43;92.61;102324.25;6245463;23;20031;-93
2022/01/14 11:51:59;;;;;;;42.20;21.27;;;;;;;1.53;91.87;102321.00;6236918;23;20120;-95
2022/01/14 11:54:44;;;;;;;40.88;20.88;;;;;;;1.26;90.75;102255.19;6247996;23;20020;-91
2022/01/14 11:58:00;;;;;;;38.85;21.23;;;;;;;1.46;90.98;102295.59;6254316;22;20020;-92
2022/01/14 12:00:42;;;;;;;40.67;22.30;;;;;;;1.47;91.49;102297.38;6253261;22;20059;-92
2022/01/14 12:03:55;;;;;;;39.20;20.05;;;;;;;1.27;90.64;102256.91;6262539;23;20050;-95
2022/01/14 12:06:54;;;;;;;36.55;19.13;;;;;;;1.54;89.40;102304.47;6108769;23;20018;-91
2022/01/14 12:09:33;;;;;;;37.13;18.65;;;;;;;0.97;90.45;102236.28;6254552;23;20008;-93
2022/01/14 12:12:30;;;;;;;37.67;21.65;;;;;;;1.43;91.38;102308.59;6243799;23;20478;-90
2022/01/14 12:15:00;;;;;;;44.50;21.40;;;;;;;1.37;90.80;102287.59;6243306;23;20811;-91
2022/01/14 12:17:39;;;;;;;39.88;20.58;;;;;;;1.36;90.91;102288.44;6246337;22;20099;-93
2022/01/14 12:20:17;;;;;;;40.70;20.90;;;;;;;1.10;91.84;102232.22;6241941;23;20047;-92
2022/01/14 12:23:07;;;;;;;42.58;22.70;;;;;;;1.40;91.93;102282.44;6245263;23;20020;-91
2022/01/14 12:25:44;;;;;;;40.08;22.17;;;;;;;1.53;91.33;102292.28;6245569;23;20016;-91
2022/01/14 12:28:23;;;;;;;45.58;23.65;;;;;;;1.40;90.29;102262.44;6242748;23;20016;-91
2022/01/14 12:31:16;;;;;;;42.05;21.15;;;;;;;1.62;90.03;102291.56;6241118;23;20099;-90
2022/01/14 12:33:50;;;;;;;38.92;20.85;;;;;;;1.58;90.67;102288.00;6238087;22;20028;-90
2022/01/14 12:36:23;;;;;;;45.58;22.83;;;;;;;1.61;90.52;102276.75;6241297;23;20721;-91
2022/01/14 12:38:51;;;;;;;48.67;23.23;;;;;;;1.50;91.77;102221.72;6252614;22;20442;-92
2022/01/14 12:41:23;;;;;;;;;;;;;;;1.81;90.38;102253.63;6267780;22;20376;-93
2022/01/14 12:43:52;;;;;;;49.05;23.60;;;;;;;1.89;89.68;102254.66;6271548;22;19915;-92
2022/01/14 12:46:41;;;;;;;50.80;24.40;;;;;;;1.65;90.68;102211.56;6272598;22;20331;-89
2022/01/14 12:49:14;;;;;;;47.13;24.42;;;;;;;1.64;90.52;102215.03;6274036;22;20027;-88
2022/01/14 12:51:43;;;;;;;49.95;24.60;;;;;;;1.46;90.33;102182.47;6271110;22;20111;-91
2022/01/14 12:54:11;;;;;;;41.08;20.95;;;;;;;1.63;90.28;102225.44;6271601;22;20015;-92
2022/01/14 12:56:59;;;;;;;46.03;22.48;;;;;;;1.57;90.55;102259.28;6271903;22;20035;-93
2022/01/14 12:59:38;;;;;;;46.03;22.80;;;;;;;1.52;91.66;102258.31;6271334;22;20023;-91
2022/01/14 13:02:07;;;;;;;47.00;23.30;;;;;;;1.37;92.48;102225.81;6270367;22;20045;-92
2022/01/14 13:04:43;;;;;;;50.38;23.13;;;;;;;1.50;92.93;102253.06;6278203;22;20593;-91
2022/01/14 13:07:12;;;;;;;47.53;22.48;;;;;;;1.34;92.67;102250.97;6283728;22;20062;-90
2022/01/14 13:09:54;;;;;;;;;;;;;;;1.33;92.88;102247.50;6281588;22;20066;-93
2022/01/14 13:12:25;;;;;;;47.58;23.02;;;;;;;1.35;93.10;102240.56;6273771;22;19915;-95
2022/01/14 13:15:04;;;;;;;48.58;23.02;;;;;;;1.33;93.50;102228.34;6254480;22;20047;-91
2022/01/14 13:17:38;;;;;;;52.03;24.50;;;;;;;1.37;94.02;102238.88;6219627;23;20043;-92
2022/01/14 13:20:10;;;;;;;49.10;24.35;;;;;;;1.27;92.70;102215.16;6242709;23;20016;-92
2022/01/14 13:22:40;;;;;;;50.65;24.55;;;;;;;1.09;92.14;102202.66;6215126;23;20690;-92
2022/01/14 13:25:26;;;;;;;53.45;24.85;;;;;;;1.25;92.92;102232.53;6241574;23;20058;-92
2022/01/14 13:27:57;;;;;;;46.25;22.55;;;;;;;1.16;92.26;102211.47;6239355;23;20490;-91
2022/01/14 13:30:26;;;;;;;48.33;23.23;;;;;;;0.96;92.79;102172.78;6248392;23;20020;-91
2022/01/14 13:33:10;;;;;;;53.30;24.40;;;;;;;1.25;93.41;102211.66;6243983;23;20016;-92
2022/01/14 13:35:50;;;;;;;55.63;23.80;;;;;;;1.30;93.72;102210.88;6243096;23;20020;-91
2022/01/14 13:39:06;;;;;;;51.63;24.25;;;;;;;1.55;92.70;102250.53;6243121;23;20020;-91
2022/01/14 13:41:32;;;;;;;51.55;24.15;;;;;;;1.58;93.17;102248.84;6243459;23;20086;-94
2022/01/14 13:44:14;;;;;;;48.10;23.63;;;;;;;1.45;93.31;102236.41;6242836;23;20100;-92
2022/01/14 13:46:55;;;;;;;53.20;24.40;;;;;;;1.50;93.78;102252.16;6244041;23;20016;-91
2022/01/14 13:49:23;;;;;;;56.10;25.75;;;;;;;1.48;94.12;102249.53;6243160;23;20457;-91
2022/01/14 13:52:17;;;;;;;55.10;24.98;;;;;;;1.55;93.73;102254.03;6227213;23;20370;-91
2022/01/14 13:54:54;;;;;;;52.35;25.10;;;;;;;1.64;94.76;102264.63;6251825;23;20027;-91
2022/01/14 13:57:23;;;;;;;57.15;26.92;;;;;;;1.67;93.77;102254.25;6250311;23;20052;-91
2022/01/14 13:59:50;;;;;;;54.70;25.55;;;;;;;1.80;93.25;102265.81;6201677;23;20016;-91
2022/01/14 14:02:29;;;;;;;56.03;27.10;;;;;;;1.74;93.02;102256.13;6223217;23;20074;-91
2022/01/14 14:04:57;;;;;;;50.08;24.63;;;;;;;1.65;92.92;102260.28;6248855;23;20020;-91
2022/01/14 14:07:26;;;;;;;53.08;24.95;;;;;;;1.57;93.14;102256.66;6243998;23;20090;-91
2022/01/14 14:10:47;;;;;;;53.55;25.35;;;;;;;1.57;93.48;102273.22;6213779;23;20352;-91
2022/01/14 14:13:08;;;;;;;55.40;25.52;;;;;;;1.56;94.13;102261.00;6242060;23;20022;-91
2022/01/14 14:15:48;;;;;;;46.03;23.40;;;;;;;1.58;94.26;102274.06;6216901;23;20027;-91
2022/01/14 14:18:37;;;;;;;53.22;24.48;;;;;;;1.55;94.82;102272.31;6242138;23;20371;-91
2022/01/14 14:21:15;;;;;;;55.58;24.98;;;;;;;1.60;95.55;102264.53;6243413;23;20016;-92
2022/01/14 14:24:00;;;;;;;51.55;24.77;;;;;;;1.64;94.82;102267.25;6243375;23;20054;-91
2022/01/14 14:26:32;;;;;;;50.60;24.73;;;;;;;1.60;94.66;102257.59;6246385;23;20016;-91
2022/01/14 14:29:19;;;;;;;51.38;24.88;;;;;;;1.55;94.30;102250.53;6251901;23;20019;-91
2022/01/14 14:31:58;;;;;;;53.08;25.25;;;;;;;1.68;93.74;102261.25;6249589;23;20031;-92
2022/01/14 14:34:26;;;;;;;52.13;25.38;;;;;;;1.65;94.22;102252.47;6243469;23;20027;-91
2022/01/14 14:36:54;;;;;;;55.58;26.17;;;;;;;1.64;94.82;102254.19;6247833;23;20020;-91
2022/01/14 14:39:26;;;;;;;59.28;26.95;;;;;;;1.60;94.45;102235.81;6244730;23;20028;-91
2022/01/14 14:41:58;;;;;;;59.40;27.42;;;;;;;1.71;94.83;102257.81;6244814;23;20062;-91
2022/01/14 14:44:27;;;;;;;58.50;26.05;;;;;;;1.62;94.54;102231.50;6246601;23;20391;-90
2022/01/14 14:46:57;;;;;;;54.05;26.33;;;;;;;1.62;95.07;102223.66;6247974;23;20012;-91
2022/01/14 14:49:26;;;;;;;53.90;26.10;;;;;;;1.80;94.63;102246.66;6247599;23;20090;-91
2022/01/14 14:51:53;;;;;;;54.38;26.38;;;;;;;1.72;93.84;102241.28;6247546;23;20095;-92